Wilson Cadiz — 8PSY — position and weather

sailwx.info

Track history (hours):
 
Tides and Currents Weather Stations Pressure Air Temp Water Temp Dewpoint Dewpoint Depression Visibility Wind Speed Wind Dir Waves Ship Positions

Wilson Cadiz

Last reported at 2015-Jun-30 02:10 UTC. Time now 2015-Jul-04 19:03 UTC.
Position N 64°13' W 021°57'.

Length 100 m; draft 5.5 m.

Type: Cargo ship. MMSI: 314216000.

Date/timePositionNaut miles runAvg speedWind from/ knotsBaromVisibWave heightAir tempDewpointWater temp
2015-Jun-30 02:10N 64°13' W 021°57'0 0.4
2015-Jun-30 01:32N 64°13' W 021°56'0 0.0
2015-Jun-30 00:29N 64°13' W 021°56'0 0.0
2015-Jun-29 23:29N 64°13' W 021°56'0 0.0
2015-Jun-29 22:32N 64°13' W 021°56'0 0.0
2015-Jun-29 21:32N 64°13' W 021°56'0 0.1
2015-Jun-29 20:32N 64°13' W 021°56'0 0.0
2015-Jun-29 19:32N 64°13' W 021°56'0 0.0
2015-Jun-29 18:32N 64°13' W 021°56'0 0.0
2015-Jun-29 17:32N 64°13' W 021°56'  
2015-Jun-25 10:33N 57°47' E 010°53'10 9.8
2015-Jun-25 09:32N 57°40' E 011°06'1010.2
2015-Jun-25 08:33N 57°32' E 011°19'1110.7
2015-Jun-25 07:33N 57°25' E 011°32'1110.6
2015-Jun-25 06:33N 57°17' E 011°46'1010.4
2015-Jun-25 05:33N 57°08' E 011°56'1010.2
2015-Jun-25 04:33N 56°59' E 012°02'10 9.9
2015-Jun-25 03:33N 56°49' E 012°07'1110.5
2015-Jun-25 02:33N 56°39' E 012°12'1010.5
2015-Jun-25 01:33N 56°29' E 012°16'1010.5
2015-Jun-25 00:33N 56°19' E 012°21'1110.6
2015-Jun-24 23:33N 56°09' E 012°30'1010.1
2015-Jun-24 22:33N 56°01' E 012°41'1110.8
2015-Jun-24 21:33N 55°50' E 012°44'1111.1
2015-Jun-24 20:33N 55°39' E 012°42'1010.4
2015-Jun-24 19:33N 55°29' E 012°43'1110.8
2015-Jun-24 18:33N 55°18' E 012°43'1110.6
2015-Jun-24 17:34N 55°14' E 012°60'7310.3
2015-Jun-24 10:27N 54°14' E 014°12'27 9.2
2015-Jun-24 07:33N 53°48' E 014°21'1110.7
2015-Jun-24 06:33N 53°39' E 014°33'1010.0
2015-Jun-24 05:33N 53°30' E 014°37'5 5.4
2015-Jun-24 04:32N 53°24' E 014°36'0 0.0
2015-Jun-24 03:32N 53°24' E 014°36'0 0.0
2015-Jun-24 02:32N 53°24' E 014°36'0 0.0
2015-Jun-24 01:32N 53°24' E 014°36'0 0.0
2015-Jun-24 00:32N 53°24' E 014°36'0 0.0
2015-Jun-23 23:32N 53°24' E 014°36'0 0.0
2015-Jun-23 22:32N 53°24' E 014°36'0 0.0
2015-Jun-23 21:32N 53°24' E 014°36'0 0.0
2015-Jun-23 20:32N 53°24' E 014°36'0 0.0
2015-Jun-23 19:32N 53°24' E 014°36'0 0.0
2015-Jun-23 19:05N 53°24' E 014°36'0 0.0
2015-Jun-22 19:32N 53°24' E 014°36'0 0.0
2015-Jun-22 18:32N 53°24' E 014°36'1 1.4
2015-Jun-22 17:34N 53°26' E 014°36'3 2.8
2015-Jun-22 16:32N 53°29' E 014°37'0 0.0
2015-Jun-22 15:32N 53°29' E 014°37'0 0.0
2015-Jun-22 14:32N 53°29' E 014°37'0 0.0
2015-Jun-22 13:32N 53°29' E 014°37'0 0.0
2015-Jun-22 12:29N 53°29' E 014°37'0 0.0
2015-Jun-22 11:32N 53°29' E 014°37'0 0.0
2015-Jun-22 10:32N 53°29' E 014°37'0 0.0
2015-Jun-22 09:32N 53°29' E 014°37'0 0.0
2015-Jun-22 08:32N 53°29' E 014°37'0 0.0
2015-Jun-22 07:32N 53°29' E 014°37'0 0.0
2015-Jun-22 06:32N 53°29' E 014°37'0 0.0
2015-Jun-22 05:32N 53°29' E 014°37'0 0.0
2015-Jun-22 04:32N 53°29' E 014°37'0 0.0
2015-Jun-22 03:32N 53°29' E 014°37'0 0.0
2015-Jun-22 02:32N 53°29' E 014°37'0 0.0
2015-Jun-22 01:32N 53°29' E 014°37'0 0.0
2015-Jun-22 00:32N 53°29' E 014°37'0 0.0
2015-Jun-21 23:32N 53°29' E 014°37'0 0.0
2015-Jun-21 22:32N 53°29' E 014°37'0 0.0
2015-Jun-21 21:32N 53°29' E 014°37'0 0.0
2015-Jun-21 20:32N 53°29' E 014°37'0 0.0
2015-Jun-21 19:32N 53°29' E 014°37'0 0.0
2015-Jun-21 18:32N 53°29' E 014°37'0 0.0
2015-Jun-21 17:32N 53°29' E 014°37'0 0.0
2015-Jun-21 16:32N 53°29' E 014°37'0 0.0
2015-Jun-21 15:32N 53°29' E 014°37'0 0.0
2015-Jun-21 14:32N 53°29' E 014°37'0 0.0
2015-Jun-21 13:32N 53°29' E 014°37'0 0.0
2015-Jun-21 12:32N 53°29' E 014°37'0 0.0
2015-Jun-21 11:32N 53°29' E 014°37'0 0.0
2015-Jun-21 10:32N 53°29' E 014°37'0 0.0
2015-Jun-21 09:32N 53°29' E 014°37'0 0.0
2015-Jun-21 08:32N 53°29' E 014°37'0 0.0
2015-Jun-21 07:32N 53°29' E 014°37'0 0.0
2015-Jun-21 06:32N 53°29' E 014°37'0 0.0
2015-Jun-21 05:32N 53°29' E 014°37'0 0.0
2015-Jun-21 04:32N 53°29' E 014°37'0 0.0
2015-Jun-21 03:32N 53°29' E 014°37'0 0.0
2015-Jun-21 02:32N 53°29' E 014°37'0 0.0
2015-Jun-21 01:32N 53°29' E 014°37'0 0.0
2015-Jun-21 00:32N 53°29' E 014°37'0 0.0
2015-Jun-20 23:32N 53°29' E 014°37'0 0.0
2015-Jun-20 22:32N 53°29' E 014°37'0 0.0
2015-Jun-20 21:32N 53°29' E 014°37'0 0.0
2015-Jun-20 20:32N 53°29' E 014°37'0 0.0
2015-Jun-20 19:32N 53°29' E 014°37'0 0.0
2015-Jun-20 18:32N 53°29' E 014°37'0 0.0
2015-Jun-20 17:32N 53°29' E 014°37'0 0.0
2015-Jun-20 16:32N 53°29' E 014°37'0 0.0
2015-Jun-20 15:32N 53°29' E 014°37'0 0.0
2015-Jun-20 14:32N 53°29' E 014°37'0 0.0
2015-Jun-20 13:32N 53°29' E 014°37'0 0.0
2015-Jun-20 12:32N 53°29' E 014°37'0 0.0
2015-Jun-20 11:32N 53°29' E 014°37'0 0.0
2015-Jun-20 10:32N 53°29' E 014°37'0 0.0
2015-Jun-20 09:32N 53°29' E 014°37'0 0.0
2015-Jun-20 08:32N 53°29' E 014°37'0 0.0
2015-Jun-20 07:32N 53°29' E 014°37'0 0.0
2015-Jun-20 06:32N 53°29' E 014°37'0 0.0
2015-Jun-20 05:32N 53°29' E 014°37'0 0.0
2015-Jun-20 04:32N 53°29' E 014°37'0 0.0
2015-Jun-20 03:32N 53°29' E 014°37'0 0.0
2015-Jun-20 02:32N 53°29' E 014°37'  
Track history (hours):
 
Tides and Currents Weather Stations Pressure Air Temp Water Temp Dewpoint Dewpoint Depression Visibility Wind Speed Wind Dir Waves Ship Positions

Wilson Cadiz

Last reported at 2015-Jun-30 02:10 UTC. Time now 2015-Jul-04 19:03 UTC.
Position N 64°13' W 021°57'.

Length 100 m; draft 5.5 m.

Type: Cargo ship. MMSI: 314216000.

Date/timePositionNaut miles runAvg speedWind from/ knotsBaromVisibWave heightAir tempDewpointWater temp
2015-Jun-30 02:10N 64°13' W 021°57'0 0.4
2015-Jun-30 01:32N 64°13' W 021°56'0 0.0
2015-Jun-30 00:29N 64°13' W 021°56'0 0.0
2015-Jun-29 23:29N 64°13' W 021°56'0 0.0
2015-Jun-29 22:32N 64°13' W 021°56'0 0.0
2015-Jun-29 21:32N 64°13' W 021°56'0 0.1
2015-Jun-29 20:32N 64°13' W 021°56'0 0.0
2015-Jun-29 19:32N 64°13' W 021°56'0 0.0
2015-Jun-29 18:32N 64°13' W 021°56'0 0.0
2015-Jun-29 17:32N 64°13' W 021°56'  
2015-Jun-25 10:33N 57°47' E 010°53'10 9.8
2015-Jun-25 09:32N 57°40' E 011°06'1010.2
2015-Jun-25 08:33N 57°32' E 011°19'1110.7
2015-Jun-25 07:33N 57°25' E 011°32'1110.6
2015-Jun-25 06:33N 57°17' E 011°46'1010.4
2015-Jun-25 05:33N 57°08' E 011°56'1010.2
2015-Jun-25 04:33N 56°59' E 012°02'10 9.9
2015-Jun-25 03:33N 56°49' E 012°07'1110.5
2015-Jun-25 02:33N 56°39' E 012°12'1010.5
2015-Jun-25 01:33N 56°29' E 012°16'1010.5
2015-Jun-25 00:33N 56°19' E 012°21'1110.6
2015-Jun-24 23:33N 56°09' E 012°30'1010.1
2015-Jun-24 22:33N 56°01' E 012°41'1110.8
2015-Jun-24 21:33N 55°50' E 012°44'1111.1
2015-Jun-24 20:33N 55°39' E 012°42'1010.4
2015-Jun-24 19:33N 55°29' E 012°43'1110.8
2015-Jun-24 18:33N 55°18' E 012°43'1110.6
2015-Jun-24 17:34N 55°14' E 012°60'7310.3
2015-Jun-24 10:27N 54°14' E 014°12'27 9.2
2015-Jun-24 07:33N 53°48' E 014°21'1110.7
2015-Jun-24 06:33N 53°39' E 014°33'1010.0
2015-Jun-24 05:33N 53°30' E 014°37'5 5.4
2015-Jun-24 04:32N 53°24' E 014°36'0 0.0
2015-Jun-24 03:32N 53°24' E 014°36'0 0.0
2015-Jun-24 02:32N 53°24' E 014°36'0 0.0
2015-Jun-24 01:32N 53°24' E 014°36'0 0.0
2015-Jun-24 00:32N 53°24' E 014°36'0 0.0
2015-Jun-23 23:32N 53°24' E 014°36'0 0.0
2015-Jun-23 22:32N 53°24' E 014°36'0 0.0
2015-Jun-23 21:32N 53°24' E 014°36'0 0.0
2015-Jun-23 20:32N 53°24' E 014°36'0 0.0
2015-Jun-23 19:32N 53°24' E 014°36'0 0.0
2015-Jun-23 19:05N 53°24' E 014°36'0 0.0
2015-Jun-22 19:32N 53°24' E 014°36'0 0.0
2015-Jun-22 18:32N 53°24' E 014°36'1 1.4
2015-Jun-22 17:34N 53°26' E 014°36'3 2.8
2015-Jun-22 16:32N 53°29' E 014°37'0 0.0
2015-Jun-22 15:32N 53°29' E 014°37'0 0.0
2015-Jun-22 14:32N 53°29' E 014°37'0 0.0
2015-Jun-22 13:32N 53°29' E 014°37'0 0.0
2015-Jun-22 12:29N 53°29' E 014°37'0 0.0
2015-Jun-22 11:32N 53°29' E 014°37'0 0.0
2015-Jun-22 10:32N 53°29' E 014°37'0 0.0
2015-Jun-22 09:32N 53°29' E 014°37'0 0.0
2015-Jun-22 08:32N 53°29' E 014°37'0 0.0
2015-Jun-22 07:32N 53°29' E 014°37'0 0.0
2015-Jun-22 06:32N 53°29' E 014°37'0 0.0
2015-Jun-22 05:32N 53°29' E 014°37'0 0.0
2015-Jun-22 04:32N 53°29' E 014°37'0 0.0
2015-Jun-22 03:32N 53°29' E 014°37'0 0.0
2015-Jun-22 02:32N 53°29' E 014°37'0 0.0
2015-Jun-22 01:32N 53°29' E 014°37'0 0.0
2015-Jun-22 00:32N 53°29' E 014°37'0 0.0
2015-Jun-21 23:32N 53°29' E 014°37'0 0.0
2015-Jun-21 22:32N 53°29' E 014°37'0 0.0
2015-Jun-21 21:32N 53°29' E 014°37'0 0.0
2015-Jun-21 20:32N 53°29' E 014°37'0 0.0
2015-Jun-21 19:32N 53°29' E 014°37'0 0.0
2015-Jun-21 18:32N 53°29' E 014°37'0 0.0
2015-Jun-21 17:32N 53°29' E 014°37'0 0.0
2015-Jun-21 16:32N 53°29' E 014°37'0 0.0
2015-Jun-21 15:32N 53°29' E 014°37'0 0.0
2015-Jun-21 14:32N 53°29' E 014°37'0 0.0
2015-Jun-21 13:32N 53°29' E 014°37'0 0.0
2015-Jun-21 12:32N 53°29' E 014°37'0 0.0
2015-Jun-21 11:32N 53°29' E 014°37'0 0.0
2015-Jun-21 10:32N 53°29' E 014°37'0 0.0
2015-Jun-21 09:32N 53°29' E 014°37'0 0.0
2015-Jun-21 08:32N 53°29' E 014°37'0 0.0
2015-Jun-21 07:32N 53°29' E 014°37'0 0.0
2015-Jun-21 06:32N 53°29' E 014°37'0 0.0
2015-Jun-21 05:32N 53°29' E 014°37'0 0.0
2015-Jun-21 04:32N 53°29' E 014°37'0 0.0
2015-Jun-21 03:32N 53°29' E 014°37'0 0.0
2015-Jun-21 02:32N 53°29' E 014°37'0 0.0
2015-Jun-21 01:32N 53°29' E 014°37'0 0.0
2015-Jun-21 00:32N 53°29' E 014°37'0 0.0
2015-Jun-20 23:32N 53°29' E 014°37'0 0.0
2015-Jun-20 22:32N 53°29' E 014°37'0 0.0
2015-Jun-20 21:32N 53°29' E 014°37'0 0.0
2015-Jun-20 20:32N 53°29' E 014°37'0 0.0
2015-Jun-20 19:32N 53°29' E 014°37'0 0.0
2015-Jun-20 18:32N 53°29' E 014°37'0 0.0
2015-Jun-20 17:32N 53°29' E 014°37'0 0.0
2015-Jun-20 16:32N 53°29' E 014°37'0 0.0
2015-Jun-20 15:32N 53°29' E 014°37'0 0.0
2015-Jun-20 14:32N 53°29' E 014°37'0 0.0
2015-Jun-20 13:32N 53°29' E 014°37'0 0.0
2015-Jun-20 12:32N 53°29' E 014°37'0 0.0
2015-Jun-20 11:32N 53°29' E 014°37'0 0.0
2015-Jun-20 10:32N 53°29' E 014°37'0 0.0
2015-Jun-20 09:32N 53°29' E 014°37'0 0.0
2015-Jun-20 08:32N 53°29' E 014°37'0 0.0
2015-Jun-20 07:32N 53°29' E 014°37'0 0.0
2015-Jun-20 06:32N 53°29' E 014°37'0 0.0
2015-Jun-20 05:32N 53°29' E 014°37'0 0.0
2015-Jun-20 04:32N 53°29' E 014°37'0 0.0
2015-Jun-20 03:32N 53°29' E 014°37'0 0.0
2015-Jun-20 02:32N 53°29' E 014°37'  

Dump ship's entire track history